sensor_id;sensor_type;location;lat;lon;timestamp;temperature;humidity
67586;SHT31;55785;47.946;20.540;2024-02-04T00:00:13;7.27;82.80
67586;SHT31;55785;47.946;20.540;2024-02-04T00:02:39;7.34;82.68
67586;SHT31;55785;47.946;20.540;2024-02-04T00:05:04;7.30;82.62
67586;SHT31;55785;47.946;20.540;2024-02-04T00:07:30;7.34;82.52
67586;SHT31;55785;47.946;20.540;2024-02-04T00:09:55;7.30;82.48
67586;SHT31;55785;47.946;20.540;2024-02-04T00:12:20;7.34;82.42
67586;SHT31;55785;47.946;20.540;2024-02-04T00:14:46;7.35;82.41
67586;SHT31;55785;47.946;20.540;2024-02-04T00:17:11;7.38;82.30
67586;SHT31;55785;47.946;20.540;2024-02-04T00:19:36;7.40;82.30
67586;SHT31;55785;47.946;20.540;2024-02-04T00:22:02;7.43;82.02
67586;SHT31;55785;47.946;20.540;2024-02-04T00:24:27;7.38;82.13
67586;SHT31;55785;47.946;20.540;2024-02-04T00:26:52;7.46;82.08
67586;SHT31;55785;47.946;20.540;2024-02-04T00:29:18;7.43;82.09
67586;SHT31;55785;47.946;20.540;2024-02-04T00:31:43;7.40;82.22
67586;SHT31;55785;47.946;20.540;2024-02-04T00:34:08;7.32;82.42
67586;SHT31;55785;47.946;20.540;2024-02-04T00:36:34;7.35;82.39
67586;SHT31;55785;47.946;20.540;2024-02-04T00:38:59;7.37;82.37
67586;SHT31;55785;47.946;20.540;2024-02-04T00:41:24;7.34;82.44
67586;SHT31;55785;47.946;20.540;2024-02-04T00:43:50;7.32;82.54
67586;SHT31;55785;47.946;20.540;2024-02-04T00:46:15;7.38;82.48
67586;SHT31;55785;47.946;20.540;2024-02-04T00:48:40;7.41;82.35
67586;SHT31;55785;47.946;20.540;2024-02-04T00:51:06;7.41;82.36
67586;SHT31;55785;47.946;20.540;2024-02-04T00:53:32;7.35;82.48
67586;SHT31;55785;47.946;20.540;2024-02-04T00:55:57;7.30;82.55
67586;SHT31;55785;47.946;20.540;2024-02-04T00:58:22;7.24;82.74
67586;SHT31;55785;47.946;20.540;2024-02-04T01:00:48;7.31;82.64
67586;SHT31;55785;47.946;20.540;2024-02-04T01:03:13;7.27;82.63
67586;SHT31;55785;47.946;20.540;2024-02-04T01:05:38;7.32;82.51
67586;SHT31;55785;47.946;20.540;2024-02-04T01:08:04;7.35;82.44
67586;SHT31;55785;47.946;20.540;2024-02-04T01:10:29;7.34;82.55
67586;SHT31;55785;47.946;20.540;2024-02-04T01:12:55;7.35;82.70
67586;SHT31;55785;47.946;20.540;2024-02-04T01:15:20;7.28;82.69
67586;SHT31;55785;47.946;20.540;2024-02-04T01:17:45;7.32;82.65
67586;SHT31;55785;47.946;20.540;2024-02-04T01:20:11;7.28;82.73
67586;SHT31;55785;47.946;20.540;2024-02-04T01:22:36;7.26;82.71
67586;SHT31;55785;47.946;20.540;2024-02-04T01:25:01;7.21;82.81
67586;SHT31;55785;47.946;20.540;2024-02-04T01:27:27;7.21;82.89
67586;SHT31;55785;47.946;20.540;2024-02-04T01:29:52;7.13;83.06
67586;SHT31;55785;47.946;20.540;2024-02-04T01:32:17;7.09;83.22
67586;SHT31;55785;47.946;20.540;2024-02-04T01:34:43;7.09;83.04
67586;SHT31;55785;47.946;20.540;2024-02-04T01:37:08;7.04;83.34
67586;SHT31;55785;47.946;20.540;2024-02-04T01:39:33;7.00;83.38
67586;SHT31;55785;47.946;20.540;2024-02-04T01:41:59;7.04;83.38
67586;SHT31;55785;47.946;20.540;2024-02-04T01:44:24;7.01;83.46
67586;SHT31;55785;47.946;20.540;2024-02-04T01:46:49;7.00;83.49
67586;SHT31;55785;47.946;20.540;2024-02-04T01:49:15;7.06;83.41
67586;SHT31;55785;47.946;20.540;2024-02-04T01:51:40;7.03;83.40
67586;SHT31;55785;47.946;20.540;2024-02-04T01:54:07;7.01;83.39
67586;SHT31;55785;47.946;20.540;2024-02-04T01:56:32;7.00;83.43
67586;SHT31;55785;47.946;20.540;2024-02-04T01:58:59;7.00;83.32
67586;SHT31;55785;47.946;20.540;2024-02-04T02:01:24;6.96;83.44
67586;SHT31;55785;47.946;20.540;2024-02-04T02:03:51;6.86;83.68
67586;SHT31;55785;47.946;20.540;2024-02-04T02:06:16;6.83;83.86
67586;SHT31;55785;47.946;20.540;2024-02-04T02:08:42;6.76;84.05
67586;SHT31;55785;47.946;20.540;2024-02-04T02:11:13;6.76;84.11
67586;SHT31;55785;47.946;20.540;2024-02-04T02:13:41;6.82;83.90
67586;SHT31;55785;47.946;20.540;2024-02-04T02:16:13;6.83;83.83
67586;SHT31;55785;47.946;20.540;2024-02-04T02:18:46;6.80;83.89
67586;SHT31;55785;47.946;20.540;2024-02-04T02:21:26;6.82;83.83
67586;SHT31;55785;47.946;20.540;2024-02-04T02:24:11;6.72;83.97
67586;SHT31;55785;47.946;20.540;2024-02-04T02:26:40;6.65;84.18
67586;SHT31;55785;47.946;20.540;2024-02-04T02:29:06;6.68;84.17
67586;SHT31;55785;47.946;20.540;2024-02-04T02:31:31;6.65;84.29
67586;SHT31;55785;47.946;20.540;2024-02-04T02:33:57;6.64;84.36
67586;SHT31;55785;47.946;20.540;2024-02-04T02:36:23;6.64;84.26
67586;SHT31;55785;47.946;20.540;2024-02-04T02:38:59;6.65;84.26
67586;SHT31;55785;47.946;20.540;2024-02-04T02:41:30;6.64;84.24
67586;SHT31;55785;47.946;20.540;2024-02-04T02:43:56;6.62;84.15
67586;SHT31;55785;47.946;20.540;2024-02-04T02:46:22;6.58;84.25
67586;SHT31;55785;47.946;20.540;2024-02-04T02:48:49;6.61;84.07
67586;SHT31;55785;47.946;20.540;2024-02-04T02:51:14;6.53;84.13
67586;SHT31;55785;47.946;20.540;2024-02-04T02:53:40;6.52;84.19
67586;SHT31;55785;47.946;20.540;2024-02-04T02:56:05;6.56;84.09
67586;SHT31;55785;47.946;20.540;2024-02-04T02:58:31;6.52;84.10
67586;SHT31;55785;47.946;20.540;2024-02-04T03:00:56;6.52;84.02
67586;SHT31;55785;47.946;20.540;2024-02-04T03:03:21;6.51;84.01
67586;SHT31;55785;47.946;20.540;2024-02-04T03:05:47;6.51;83.90
67586;SHT31;55785;47.946;20.540;2024-02-04T03:08:12;6.48;83.97
67586;SHT31;55785;47.946;20.540;2024-02-04T03:10:37;6.49;84.01
67586;SHT31;55785;47.946;20.540;2024-02-04T03:13:03;6.48;83.97
67586;SHT31;55785;47.946;20.540;2024-02-04T03:15:28;6.40;84.00
67586;SHT31;55785;47.946;20.540;2024-02-04T03:17:53;6.38;84.10
67586;SHT31;55785;47.946;20.540;2024-02-04T03:20:19;6.35;84.14
67586;SHT31;55785;47.946;20.540;2024-02-04T03:22:45;6.37;83.95
67586;SHT31;55785;47.946;20.540;2024-02-04T03:25:10;6.35;83.84
67586;SHT31;55785;47.946;20.540;2024-02-04T03:27:36;6.38;83.66
67586;SHT31;55785;47.946;20.540;2024-02-04T03:30:01;6.41;83.45
67586;SHT31;55785;47.946;20.540;2024-02-04T03:32:26;6.46;83.19
67586;SHT31;55785;47.946;20.540;2024-02-04T03:34:52;6.65;82.65
67586;SHT31;55785;47.946;20.540;2024-02-04T03:37:17;6.76;82.25
67586;SHT31;55785;47.946;20.540;2024-02-04T03:39:42;6.92;81.60
67586;SHT31;55785;47.946;20.540;2024-02-04T03:42:07;7.00;81.18
67586;SHT31;55785;47.946;20.540;2024-02-04T03:44:33;7.10;80.78
67586;SHT31;55785;47.946;20.540;2024-02-04T03:46:58;7.19;80.46
67586;SHT31;55785;47.946;20.540;2024-02-04T03:49:24;7.21;80.41
67586;SHT31;55785;47.946;20.540;2024-02-04T03:51:49;7.17;80.43
67586;SHT31;55785;47.946;20.540;2024-02-04T03:54:14;7.16;80.48
67586;SHT31;55785;47.946;20.540;2024-02-04T03:56:40;7.07;80.69
67586;SHT31;55785;47.946;20.540;2024-02-04T03:59:07;7.00;80.87
67586;SHT31;55785;47.946;20.540;2024-02-04T04:01:33;7.09;80.79
67586;SHT31;55785;47.946;20.540;2024-02-04T04:03:58;7.21;80.40
67586;SHT31;55785;47.946;20.540;2024-02-04T04:06:23;7.24;80.11
67586;SHT31;55785;47.946;20.540;2024-02-04T04:08:49;7.27;80.02
67586;SHT31;55785;47.946;20.540;2024-02-04T04:11:14;7.19;80.10
67586;SHT31;55785;47.946;20.540;2024-02-04T04:13:39;7.14;80.09
67586;SHT31;55785;47.946;20.540;2024-02-04T04:16:05;7.07;80.52
67586;SHT31;55785;47.946;20.540;2024-02-04T04:18:30;6.99;80.67
67586;SHT31;55785;47.946;20.540;2024-02-04T04:20:56;6.97;80.92
67586;SHT31;55785;47.946;20.540;2024-02-04T04:23:22;6.93;80.91
67586;SHT31;55785;47.946;20.540;2024-02-04T04:25:47;6.80;81.46
67586;SHT31;55785;47.946;20.540;2024-02-04T04:28:12;6.82;81.58
67586;SHT31;55785;47.946;20.540;2024-02-04T04:30:38;6.76;81.85
67586;SHT31;55785;47.946;20.540;2024-02-04T04:33:03;6.83;81.96
67586;SHT31;55785;47.946;20.540;2024-02-04T04:35:28;6.83;81.89
67586;SHT31;55785;47.946;20.540;2024-02-04T04:37:54;6.71;82.10
67586;SHT31;55785;47.946;20.540;2024-02-04T04:40:19;6.59;82.46
67586;SHT31;55785;47.946;20.540;2024-02-04T04:42:44;6.59;82.74
67586;SHT31;55785;47.946;20.540;2024-02-04T04:45:10;6.48;82.91
67586;SHT31;55785;47.946;20.540;2024-02-04T04:47:35;6.45;83.24
67586;SHT31;55785;47.946;20.540;2024-02-04T04:50:01;6.48;83.59
67586;SHT31;55785;47.946;20.540;2024-02-04T04:52:26;6.46;83.65
67586;SHT31;55785;47.946;20.540;2024-02-04T04:54:52;6.49;83.59
67586;SHT31;55785;47.946;20.540;2024-02-04T04:57:17;6.52;83.38
67586;SHT31;55785;47.946;20.540;2024-02-04T04:59:43;6.44;83.75
67586;SHT31;55785;47.946;20.540;2024-02-04T05:02:08;6.40;83.84
67586;SHT31;55785;47.946;20.540;2024-02-04T05:04:34;6.34;83.72
67586;SHT31;55785;47.946;20.540;2024-02-04T05:06:59;6.27;83.92
67586;SHT31;55785;47.946;20.540;2024-02-04T05:09:24;6.16;84.36
67586;SHT31;55785;47.946;20.540;2024-02-04T05:11:50;6.13;84.72
67586;SHT31;55785;47.946;20.540;2024-02-04T05:14:15;6.04;85.18
67586;SHT31;55785;47.946;20.540;2024-02-04T05:16:40;6.07;85.18
67586;SHT31;55785;47.946;20.540;2024-02-04T05:19:06;6.03;85.08
67586;SHT31;55785;47.946;20.540;2024-02-04T05:21:31;6.04;85.28
67586;SHT31;55785;47.946;20.540;2024-02-04T05:23:56;6.06;85.29
67586;SHT31;55785;47.946;20.540;2024-02-04T05:26:22;6.04;85.31
67586;SHT31;55785;47.946;20.540;2024-02-04T05:28:47;6.04;85.46
67586;SHT31;55785;47.946;20.540;2024-02-04T05:31:12;6.07;85.45
67586;SHT31;55785;47.946;20.540;2024-02-04T05:33:38;6.11;85.54
67586;SHT31;55785;47.946;20.540;2024-02-04T05:36:06;6.16;85.38
67586;SHT31;55785;47.946;20.540;2024-02-04T05:38:31;6.13;85.45
67586;SHT31;55785;47.946;20.540;2024-02-04T05:40:57;6.10;85.32
67586;SHT31;55785;47.946;20.540;2024-02-04T05:43:22;6.10;85.58
67586;SHT31;55785;47.946;20.540;2024-02-04T05:45:47;6.06;85.55
67586;SHT31;55785;47.946;20.540;2024-02-04T05:48:13;6.06;85.58
67586;SHT31;55785;47.946;20.540;2024-02-04T05:50:38;6.04;85.61
67586;SHT31;55785;47.946;20.540;2024-02-04T05:53:03;6.14;85.56
67586;SHT31;55785;47.946;20.540;2024-02-04T05:55:30;6.14;85.32
67586;SHT31;55785;47.946;20.540;2024-02-04T05:57:55;6.13;85.55
67586;SHT31;55785;47.946;20.540;2024-02-04T06:00:21;6.10;85.51
67586;SHT31;55785;47.946;20.540;2024-02-04T06:02:46;6.07;85.72
67586;SHT31;55785;47.946;20.540;2024-02-04T06:05:12;6.13;85.60
67586;SHT31;55785;47.946;20.540;2024-02-04T06:07:38;6.14;85.74
67586;SHT31;55785;47.946;20.540;2024-02-04T06:10:04;6.22;85.60
67586;SHT31;55785;47.946;20.540;2024-02-04T06:12:29;6.25;85.29
67586;SHT31;55785;47.946;20.540;2024-02-04T06:14:55;6.24;85.34
67586;SHT31;55785;47.946;20.540;2024-02-04T06:17:20;6.18;85.40
67586;SHT31;55785;47.946;20.540;2024-02-04T06:19:46;6.18;85.78
67586;SHT31;55785;47.946;20.540;2024-02-04T06:22:11;6.20;85.72
67586;SHT31;55785;47.946;20.540;2024-02-04T06:24:36;6.22;85.71
67586;SHT31;55785;47.946;20.540;2024-02-04T06:27:02;6.32;85.66
67586;SHT31;55785;47.946;20.540;2024-02-04T06:29:27;6.34;85.42
67586;SHT31;55785;47.946;20.540;2024-02-04T06:31:53;6.35;85.35
67586;SHT31;55785;47.946;20.540;2024-02-04T06:34:18;6.25;85.55
67586;SHT31;55785;47.946;20.540;2024-02-04T06:36:44;6.18;85.91
67586;SHT31;55785;47.946;20.540;2024-02-04T06:39:09;6.25;85.91
67586;SHT31;55785;47.946;20.540;2024-02-04T06:41:34;6.31;85.91
67586;SHT31;55785;47.946;20.540;2024-02-04T06:44:00;6.32;85.85
67586;SHT31;55785;47.946;20.540;2024-02-04T06:46:26;6.40;85.79
67586;SHT31;55785;47.946;20.540;2024-02-04T06:48:52;6.46;85.58
67586;SHT31;55785;47.946;20.540;2024-02-04T06:51:18;6.46;85.58
67586;SHT31;55785;47.946;20.540;2024-02-04T06:53:43;6.58;85.62
67586;SHT31;55785;47.946;20.540;2024-02-04T06:56:08;6.69;85.42
67586;SHT31;55785;47.946;20.540;2024-02-04T06:58:37;6.78;85.26
67586;SHT31;55785;47.946;20.540;2024-02-04T07:01:02;6.90;84.86
67586;SHT31;55785;47.946;20.540;2024-02-04T07:03:28;6.97;84.53
67586;SHT31;55785;47.946;20.540;2024-02-04T07:05:53;7.03;84.38
67586;SHT31;55785;47.946;20.540;2024-02-04T07:08:18;7.13;84.23
67586;SHT31;55785;47.946;20.540;2024-02-04T07:10:44;7.21;83.76
67586;SHT31;55785;47.946;20.540;2024-02-04T07:13:09;7.32;83.70
67586;SHT31;55785;47.946;20.540;2024-02-04T07:15:34;7.38;83.59
67586;SHT31;55785;47.946;20.540;2024-02-04T07:18:00;7.40;83.34
67586;SHT31;55785;47.946;20.540;2024-02-04T07:20:25;7.47;83.34
67586;SHT31;55785;47.946;20.540;2024-02-04T07:22:50;7.55;83.11
67586;SHT31;55785;47.946;20.540;2024-02-04T07:25:16;7.59;82.82
67586;SHT31;55785;47.946;20.540;2024-02-04T07:27:41;7.62;82.86
67586;SHT31;55785;47.946;20.540;2024-02-04T07:30:07;7.71;82.30
67586;SHT31;55785;47.946;20.540;2024-02-04T07:32:32;7.77;82.14
67586;SHT31;55785;47.946;20.540;2024-02-04T07:34:58;7.81;82.04
67586;SHT31;55785;47.946;20.540;2024-02-04T07:37:23;7.89;81.75
67586;SHT31;55785;47.946;20.540;2024-02-04T07:39:48;7.99;81.94
67586;SHT31;55785;47.946;20.540;2024-02-04T07:42:14;8.03;81.71
67586;SHT31;55785;47.946;20.540;2024-02-04T07:44:39;8.07;81.24
67586;SHT31;55785;47.946;20.540;2024-02-04T07:47:04;8.10;81.43
67586;SHT31;55785;47.946;20.540;2024-02-04T07:49:30;8.19;81.32
67586;SHT31;55785;47.946;20.540;2024-02-04T07:51:55;8.22;81.41
67586;SHT31;55785;47.946;20.540;2024-02-04T07:54:20;8.26;80.50
67586;SHT31;55785;47.946;20.540;2024-02-04T07:56:46;8.40;80.07
67586;SHT31;55785;47.946;20.540;2024-02-04T07:59:11;8.37;80.66
67586;SHT31;55785;47.946;20.540;2024-02-04T08:01:36;8.37;80.34
67586;SHT31;55785;47.946;20.540;2024-02-04T08:04:02;8.38;80.47
67586;SHT31;55785;47.946;20.540;2024-02-04T08:06:27;8.47;79.70
67586;SHT31;55785;47.946;20.540;2024-02-04T08:08:52;8.53;79.98
67586;SHT31;55785;47.946;20.540;2024-02-04T08:11:18;8.63;80.27
67586;SHT31;55785;47.946;20.540;2024-02-04T08:13:43;8.68;79.69
67586;SHT31;55785;47.946;20.540;2024-02-04T08:16:09;8.75;78.99
67586;SHT31;55785;47.946;20.540;2024-02-04T08:18:34;8.75;79.26
67586;SHT31;55785;47.946;20.540;2024-02-04T08:21:00;8.81;79.15
67586;SHT31;55785;47.946;20.540;2024-02-04T08:23:25;8.89;78.28
67586;SHT31;55785;47.946;20.540;2024-02-04T08:25:50;8.98;78.56
67586;SHT31;55785;47.946;20.540;2024-02-04T08:28:16;9.09;78.80
67586;SHT31;55785;47.946;20.540;2024-02-04T08:30:41;9.13;77.86
67586;SHT31;55785;47.946;20.540;2024-02-04T08:33:07;9.16;77.38
67586;SHT31;55785;47.946;20.540;2024-02-04T08:35:32;9.30;77.63
67586;SHT31;55785;47.946;20.540;2024-02-04T08:37:57;9.36;77.18
67586;SHT31;55785;47.946;20.540;2024-02-04T08:40:23;9.43;77.06
67586;SHT31;55785;47.946;20.540;2024-02-04T08:42:48;9.55;75.86
67586;SHT31;55785;47.946;20.540;2024-02-04T08:45:13;9.67;75.80
67586;SHT31;55785;47.946;20.540;2024-02-04T08:47:39;9.77;75.46
67586;SHT31;55785;47.946;20.540;2024-02-04T08:50:04;9.88;75.08
67586;SHT31;55785;47.946;20.540;2024-02-04T08:52:30;9.99;73.78
67586;SHT31;55785;47.946;20.540;2024-02-04T08:54:55;10.09;73.34
67586;SHT31;55785;47.946;20.540;2024-02-04T08:57:20;10.19;73.37
67586;SHT31;55785;47.946;20.540;2024-02-04T08:59:46;10.26;73.07
67586;SHT31;55785;47.946;20.540;2024-02-04T09:02:11;10.35;72.86
67586;SHT31;55785;47.946;20.540;2024-02-04T09:04:36;10.40;72.58
67586;SHT31;55785;47.946;20.540;2024-02-04T09:07:02;10.40;71.77
67586;SHT31;55785;47.946;20.540;2024-02-04T09:09:27;10.48;71.48
67586;SHT31;55785;47.946;20.540;2024-02-04T09:11:52;10.49;71.34
67586;SHT31;55785;47.946;20.540;2024-02-04T09:14:18;10.56;71.14
67586;SHT31;55785;47.946;20.540;2024-02-04T09:16:43;10.64;70.29
67586;SHT31;55785;47.946;20.540;2024-02-04T09:19:08;10.69;69.69
67586;SHT31;55785;47.946;20.540;2024-02-04T09:21:34;10.71;70.07
67586;SHT31;55785;47.946;20.540;2024-02-04T09:23:59;10.64;70.19
67586;SHT31;55785;47.946;20.540;2024-02-04T09:26:24;10.64;69.88
67586;SHT31;55785;47.946;20.540;2024-02-04T09:28:50;10.77;70.24
67586;SHT31;55785;47.946;20.540;2024-02-04T09:31:16;10.88;69.57
67586;SHT31;55785;47.946;20.540;2024-02-04T09:33:41;10.97;69.61
67586;SHT31;55785;47.946;20.540;2024-02-04T09:36:06;11.03;69.80
67586;SHT31;55785;47.946;20.540;2024-02-04T09:38:32;11.08;69.01
67586;SHT31;55785;47.946;20.540;2024-02-04T09:40:57;11.14;68.89
67586;SHT31;55785;47.946;20.540;2024-02-04T09:43:23;11.19;69.12
67586;SHT31;55785;47.946;20.540;2024-02-04T09:45:49;11.19;68.58
67586;SHT31;55785;47.946;20.540;2024-02-04T09:48:17;11.25;68.94
67586;SHT31;55785;47.946;20.540;2024-02-04T09:50:43;11.34;68.26
67586;SHT31;55785;47.946;20.540;2024-02-04T09:53:11;11.54;68.23
67586;SHT31;55785;47.946;20.540;2024-02-04T09:55:39;11.62;67.75
67586;SHT31;55785;47.946;20.540;2024-02-04T09:58:05;11.63;67.53
67586;SHT31;55785;47.946;20.540;2024-02-04T10:00:33;11.77;67.53
67586;SHT31;55785;47.946;20.540;2024-02-04T10:02:58;11.75;67.00
67586;SHT31;55785;47.946;20.540;2024-02-04T10:05:24;11.55;66.99
67586;SHT31;55785;47.946;20.540;2024-02-04T10:07:49;11.63;67.08
67586;SHT31;55785;47.946;20.540;2024-02-04T10:10:15;11.65;67.21
67586;SHT31;55785;47.946;20.540;2024-02-04T10:12:40;11.49;67.44
67586;SHT31;55785;47.946;20.540;2024-02-04T10:15:06;11.56;66.56
67586;SHT31;55785;47.946;20.540;2024-02-04T10:17:31;11.65;67.17
67586;SHT31;55785;47.946;20.540;2024-02-04T10:19:57;11.89;66.75
67586;SHT31;55785;47.946;20.540;2024-02-04T10:22:22;11.94;66.48
67586;SHT31;55785;47.946;20.540;2024-02-04T10:24:50;11.97;65.32
67586;SHT31;55785;47.946;20.540;2024-02-04T10:27:15;12.03;66.26
67586;SHT31;55785;47.946;20.540;2024-02-04T10:29:41;12.13;65.55
67586;SHT31;55785;47.946;20.540;2024-02-04T10:32:06;12.23;65.67
67586;SHT31;55785;47.946;20.540;2024-02-04T10:34:32;12.37;65.20
67586;SHT31;55785;47.946;20.540;2024-02-04T10:36:57;12.44;64.88
67586;SHT31;55785;47.946;20.540;2024-02-04T10:39:22;12.44;63.78
67586;SHT31;55785;47.946;20.540;2024-02-04T10:41:52;12.38;64.05
67586;SHT31;55785;47.946;20.540;2024-02-04T10:44:21;12.25;64.42
67586;SHT31;55785;47.946;20.540;2024-02-04T10:46:47;12.18;64.28
67586;SHT31;55785;47.946;20.540;2024-02-04T10:49:15;11.98;64.49
67586;SHT31;55785;47.946;20.540;2024-02-04T10:51:41;11.82;64.51
67586;SHT31;55785;47.946;20.540;2024-02-04T10:54:07;11.79;65.36
67586;SHT31;55785;47.946;20.540;2024-02-04T10:56:42;11.76;65.47
67586;SHT31;55785;47.946;20.540;2024-02-04T10:59:09;11.77;66.02
67586;SHT31;55785;47.946;20.540;2024-02-04T11:01:35;11.85;66.39
67586;SHT31;55785;47.946;20.540;2024-02-04T11:04:02;11.91;65.51
67586;SHT31;55785;47.946;20.540;2024-02-04T11:06:29;11.86;64.92
67586;SHT31;55785;47.946;20.540;2024-02-04T11:08:55;11.66;65.08
67586;SHT31;55785;47.946;20.540;2024-02-04T11:11:21;11.61;65.74
67586;SHT31;55785;47.946;20.540;2024-02-04T11:13:47;11.59;66.04
67586;SHT31;55785;47.946;20.540;2024-02-04T11:21:59;11.80;65.79
67586;SHT31;55785;47.946;20.540;2024-02-04T11:27:32;11.83;65.53
67586;SHT31;55785;47.946;20.540;2024-02-04T11:29:58;11.85;65.77
67586;SHT31;55785;47.946;20.540;2024-02-04T11:32:26;12.10;64.52
67586;SHT31;55785;47.946;20.540;2024-02-04T11:34:53;12.40;63.64
67586;SHT31;55785;47.946;20.540;2024-02-04T11:37:19;12.61;62.44
67586;SHT31;55785;47.946;20.540;2024-02-04T11:39:49;12.73;62.82
67586;SHT31;55785;47.946;20.540;2024-02-04T11:42:15;12.83;61.98
67586;SHT31;55785;47.946;20.540;2024-02-04T11:44:40;12.97;61.25
67586;SHT31;55785;47.946;20.540;2024-02-04T11:47:06;13.24;60.33
67586;SHT31;55785;47.946;20.540;2024-02-04T11:49:31;13.27;58.90
67586;SHT31;55785;47.946;20.540;2024-02-04T11:51:56;13.34;58.43
67586;SHT31;55785;47.946;20.540;2024-02-04T11:54:22;13.13;58.80
67586;SHT31;55785;47.946;20.540;2024-02-04T11:56:51;13.44;59.39
67586;SHT31;55785;47.946;20.540;2024-02-04T11:59:16;13.40;58.92
67586;SHT31;55785;47.946;20.540;2024-02-04T12:01:42;13.20;59.42
67586;SHT31;55785;47.946;20.540;2024-02-04T12:04:15;12.95;60.26
67586;SHT31;55785;47.946;20.540;2024-02-04T12:06:41;13.14;59.94
67586;SHT31;55785;47.946;20.540;2024-02-04T12:09:10;13.23;59.97
67586;SHT31;55785;47.946;20.540;2024-02-04T12:11:36;13.28;59.34
67586;SHT31;55785;47.946;20.540;2024-02-04T12:14:04;13.16;59.55
67586;SHT31;55785;47.946;20.540;2024-02-04T12:16:29;12.85;59.97
67586;SHT31;55785;47.946;20.540;2024-02-04T12:18:54;12.91;60.50
67586;SHT31;55785;47.946;20.540;2024-02-04T12:21:20;12.82;60.23
67586;SHT31;55785;47.946;20.540;2024-02-04T12:23:45;12.78;60.47
67586;SHT31;55785;47.946;20.540;2024-02-04T12:26:11;12.81;60.02
67586;SHT31;55785;47.946;20.540;2024-02-04T12:28:37;12.79;59.74
67586;SHT31;55785;47.946;20.540;2024-02-04T12:31:02;12.68;59.73
67586;SHT31;55785;47.946;20.540;2024-02-04T12:33:28;12.69;59.98
67586;SHT31;55785;47.946;20.540;2024-02-04T12:35:53;12.89;60.00
67586;SHT31;55785;47.946;20.540;2024-02-04T12:38:18;12.89;59.85
67586;SHT31;55785;47.946;20.540;2024-02-04T12:40:44;12.78;59.41
67586;SHT31;55785;47.946;20.540;2024-02-04T12:43:11;12.83;59.19
67586;SHT31;55785;47.946;20.540;2024-02-04T12:45:36;12.81;59.62
67586;SHT31;55785;47.946;20.540;2024-02-04T12:48:02;12.82;59.08
67586;SHT31;55785;47.946;20.540;2024-02-04T12:50:27;12.96;59.01
67586;SHT31;55785;47.946;20.540;2024-02-04T12:53:07;12.93;58.48
67586;SHT31;55785;47.946;20.540;2024-02-04T12:55:36;12.86;58.18
67586;SHT31;55785;47.946;20.540;2024-02-04T12:58:08;12.86;58.27
67586;SHT31;55785;47.946;20.540;2024-02-04T13:00:35;12.88;58.54
67586;SHT31;55785;47.946;20.540;2024-02-04T13:03:01;12.86;57.93
67586;SHT31;55785;47.946;20.540;2024-02-04T13:05:26;12.66;57.58
67586;SHT31;55785;47.946;20.540;2024-02-04T13:07:56;12.61;58.07
67586;SHT31;55785;47.946;20.540;2024-02-04T13:10:25;12.46;57.11
67586;SHT31;55785;47.946;20.540;2024-02-04T13:15:30;12.46;58.42
67586;SHT31;55785;47.946;20.540;2024-02-04T13:17:55;12.41;58.79
67586;SHT31;55785;47.946;20.540;2024-02-04T13:20:22;12.38;58.22
67586;SHT31;55785;47.946;20.540;2024-02-04T13:22:47;12.37;58.17
67586;SHT31;55785;47.946;20.540;2024-02-04T13:25:12;12.34;58.07
67586;SHT31;55785;47.946;20.540;2024-02-04T13:27:38;12.37;58.12
67586;SHT31;55785;47.946;20.540;2024-02-04T13:30:03;12.31;57.87
67586;SHT31;55785;47.946;20.540;2024-02-04T13:32:29;12.34;57.71
67586;SHT31;55785;47.946;20.540;2024-02-04T13:34:54;12.35;57.56
67586;SHT31;55785;47.946;20.540;2024-02-04T13:37:21;12.38;57.30
67586;SHT31;55785;47.946;20.540;2024-02-04T13:39:46;12.38;57.42
67586;SHT31;55785;47.946;20.540;2024-02-04T13:42:11;12.44;56.81
67586;SHT31;55785;47.946;20.540;2024-02-04T13:44:37;12.46;55.81
67586;SHT31;55785;47.946;20.540;2024-02-04T13:47:03;12.41;55.55
67586;SHT31;55785;47.946;20.540;2024-02-04T13:49:29;12.44;55.00
67586;SHT31;55785;47.946;20.540;2024-02-04T13:51:54;12.49;55.30
67586;SHT31;55785;47.946;20.540;2024-02-04T13:54:19;12.49;56.55
67586;SHT31;55785;47.946;20.540;2024-02-04T13:56:45;12.45;56.75
67586;SHT31;55785;47.946;20.540;2024-02-04T13:59:10;12.41;58.17
67586;SHT31;55785;47.946;20.540;2024-02-04T14:01:36;12.31;58.73
67586;SHT31;55785;47.946;20.540;2024-02-04T14:04:01;12.21;59.56
67586;SHT31;55785;47.946;20.540;2024-02-04T14:06:26;12.17;60.22
67586;SHT31;55785;47.946;20.540;2024-02-04T14:08:52;12.14;60.24
67586;SHT31;55785;47.946;20.540;2024-02-04T14:11:17;12.10;60.68
67586;SHT31;55785;47.946;20.540;2024-02-04T14:13:42;11.98;60.97
67586;SHT31;55785;47.946;20.540;2024-02-04T14:16:08;12.03;61.31
67586;SHT31;55785;47.946;20.540;2024-02-04T14:18:33;11.97;61.65
67586;SHT31;55785;47.946;20.540;2024-02-04T14:20:58;11.97;62.05
67586;SHT31;55785;47.946;20.540;2024-02-04T14:23:24;11.90;62.19
67586;SHT31;55785;47.946;20.540;2024-02-04T14:25:49;11.85;62.27
67586;SHT31;55785;47.946;20.540;2024-02-04T14:28:14;11.85;62.48
67586;SHT31;55785;47.946;20.540;2024-02-04T14:30:40;11.83;61.99
67586;SHT31;55785;47.946;20.540;2024-02-04T14:33:05;11.83;61.53
67586;SHT31;55785;47.946;20.540;2024-02-04T14:35:30;11.79;62.62
67586;SHT31;55785;47.946;20.540;2024-02-04T14:37:56;11.75;62.54
67586;SHT31;55785;47.946;20.540;2024-02-04T14:40:21;11.69;62.64
67586;SHT31;55785;47.946;20.540;2024-02-04T14:42:46;11.67;63.09
67586;SHT31;55785;47.946;20.540;2024-02-04T14:45:12;11.69;63.10
67586;SHT31;55785;47.946;20.540;2024-02-04T14:47:38;11.72;63.15
67586;SHT31;55785;47.946;20.540;2024-02-04T14:50:03;11.67;63.15
67586;SHT31;55785;47.946;20.540;2024-02-04T14:52:29;11.65;63.46
67586;SHT31;55785;47.946;20.540;2024-02-04T14:54:54;11.61;63.67
67586;SHT31;55785;47.946;20.540;2024-02-04T14:57:19;11.58;63.60
67586;SHT31;55785;47.946;20.540;2024-02-04T14:59:45;11.59;64.03
67586;SHT31;55785;47.946;20.540;2024-02-04T15:02:13;11.49;64.05
67586;SHT31;55785;47.946;20.540;2024-02-04T15:04:39;11.48;64.46
67586;SHT31;55785;47.946;20.540;2024-02-04T15:07:04;11.48;64.82
67586;SHT31;55785;47.946;20.540;2024-02-04T15:09:33;11.45;64.89
67586;SHT31;55785;47.946;20.540;2024-02-04T15:11:59;11.40;65.50
67586;SHT31;55785;47.946;20.540;2024-02-04T15:14:24;11.36;65.59
67586;SHT31;55785;47.946;20.540;2024-02-04T15:16:50;11.36;65.89
67586;SHT31;55785;47.946;20.540;2024-02-04T15:19:16;11.36;66.50
67586;SHT31;55785;47.946;20.540;2024-02-04T15:21:41;11.17;66.83
67586;SHT31;55785;47.946;20.540;2024-02-04T15:24:07;11.10;67.21
67586;SHT31;55785;47.946;20.540;2024-02-04T15:26:34;11.06;67.16